Terminal Aerodrome Forecast
Issued by NWS

Home | Current Version | Previous Version | Text Only | Print | Product List | Glossary On
Versions: 1 2 3 4 5 6 7 8 9 10 11 12 13 14 15 16 17 18 19 20 21 22 23 24 25 26 27 28
000
FTUS43 KDLH 050531
TAFHIB
TAF
KHIB 050531Z 0506/0606 14004KT P6SM OVC050
     FM050900 16003KT 6SM HZ FU SCT250 WS015/22045KT
     FM051400 17005KT P6SM SCT250
     FM051700 19007G20KT P6SM VCTS SCT050CB
     FM060000 22006KT P6SM VCTS BKN050CB PROB30 0600/0603 4SM -TSRA
      BKN030CB
     FM060300 21005KT 3SM RA BKN025=

USA.gov is the U.S. government's official web portal to all federal, state and local government web resources and services.